sensor_id;sensor_type;location;lat;lon;timestamp;pressure;altitude;pressure_sealevel;temperature;humidity
32759;BME280;19125;52.360;9.974;2023-05-24T00:00:53;86991.00;;;-145.17;55.66
32759;BME280;19125;52.360;9.974;2023-05-24T00:03:22;86953.31;;;-145.17;55.67
32759;BME280;19125;52.360;9.974;2023-05-24T00:05:47;87018.81;;;-145.17;55.86
32759;BME280;19125;52.360;9.974;2023-05-24T00:08:13;86993.00;;;-145.17;55.80
32759;BME280;19125;52.360;9.974;2023-05-24T00:10:43;86919.56;;;-145.17;55.34
32759;BME280;19125;52.360;9.974;2023-05-24T00:13:08;86963.22;;;-145.17;56.01
32759;BME280;19125;52.360;9.974;2023-05-24T00:15:33;86989.03;;;-145.17;56.07
32759;BME280;19125;52.360;9.974;2023-05-24T00:17:59;86985.06;;;-145.17;55.65
32759;BME280;19125;52.360;9.974;2023-05-24T00:20:34;87028.72;;;-145.17;56.07
32759;BME280;19125;52.360;9.974;2023-05-24T00:23:00;87024.75;;;-145.17;55.97
32759;BME280;19125;52.360;9.974;2023-05-24T00:25:25;87058.50;;;-145.17;56.03
32759;BME280;19125;52.360;9.974;2023-05-24T00:27:50;87020.78;;;-145.17;56.47
32759;BME280;19125;52.360;9.974;2023-05-24T00:30:16;87052.53;;;-145.17;56.25
32759;BME280;19125;52.360;9.974;2023-05-24T00:32:41;87050.56;;;-145.17;56.43
32759;BME280;19125;52.360;9.974;2023-05-24T00:35:07;87058.50;;;-145.17;56.76
32759;BME280;19125;52.360;9.974;2023-05-24T00:37:32;87062.47;;;-145.17;56.83
32759;BME280;19125;52.360;9.974;2023-05-24T00:39:57;87060.47;;;-145.17;56.98
32759;BME280;19125;52.360;9.974;2023-05-24T00:42:25;87191.47;;;-145.17;57.21
32759;BME280;19125;52.360;9.974;2023-05-24T00:44:57;87072.38;;;-145.17;57.19
32759;BME280;19125;52.360;9.974;2023-05-24T00:47:25;87124.00;;;-145.17;57.10
32759;BME280;19125;52.360;9.974;2023-05-24T00:49:54;87255.00;;;-145.17;57.76
32759;BME280;19125;52.360;9.974;2023-05-24T00:52:20;87173.63;;;-145.17;57.90
32759;BME280;19125;52.360;9.974;2023-05-24T00:54:45;87197.44;;;-145.17;58.54
32759;BME280;19125;52.360;9.974;2023-05-24T00:57:11;87231.19;;;-145.17;58.35
32759;BME280;19125;52.360;9.974;2023-05-24T00:59:38;87231.19;;;-145.17;58.74
32759;BME280;19125;52.360;9.974;2023-05-24T01:02:04;87241.09;;;-145.17;58.88
32759;BME280;19125;52.360;9.974;2023-05-24T01:04:29;87334.41;;;-145.17;58.58
32759;BME280;19125;52.360;9.974;2023-05-24T01:09:54;87306.59;;;-145.17;59.41
32759;BME280;19125;52.360;9.974;2023-05-24T01:12:35;87310.56;;;-145.17;59.09
32759;BME280;19125;52.360;9.974;2023-05-24T01:15:09;87320.50;;;-145.17;59.16
32759;BME280;19125;52.360;9.974;2023-05-24T01:20:11;87300.66;;;-145.17;58.99
32759;BME280;19125;52.360;9.974;2023-05-24T01:22:53;87364.16;;;-145.17;59.28
32759;BME280;19125;52.360;9.974;2023-05-24T01:28:32;87372.09;;;-145.17;59.83
32759;BME280;19125;52.360;9.974;2023-05-24T01:30:59;87366.16;;;-145.17;59.80
32759;BME280;19125;52.360;9.974;2023-05-24T01:33:25;87449.53;;;-145.17;59.68
32759;BME280;19125;52.360;9.974;2023-05-24T01:35:51;87437.63;;;-145.17;60.27
32759;BME280;19125;52.360;9.974;2023-05-24T01:38:17;87407.84;;;-145.17;60.21
32759;BME280;19125;52.360;9.974;2023-05-24T01:40:43;87487.25;;;-145.17;60.25
32759;BME280;19125;52.360;9.974;2023-05-24T01:46:09;87616.25;;;-145.17;61.27
32759;BME280;19125;52.360;9.974;2023-05-24T01:48:55;87566.63;;;-145.17;61.39
32759;BME280;19125;52.360;9.974;2023-05-24T01:51:28;87707.59;;;-145.17;61.63
32759;BME280;19125;52.360;9.974;2023-05-24T01:53:56;87707.59;;;-145.17;61.61
32759;BME280;19125;52.360;9.974;2023-05-24T01:56:25;87648.03;;;-145.17;61.68
32759;BME280;19125;52.360;9.974;2023-05-24T01:58:52;87642.06;;;-145.17;61.98
32759;BME280;19125;52.360;9.974;2023-05-24T02:01:19;87679.78;;;-145.17;62.02
32759;BME280;19125;52.360;9.974;2023-05-24T02:03:44;87679.78;;;-145.17;62.08
32759;BME280;19125;52.360;9.974;2023-05-24T02:06:10;87705.59;;;-145.17;62.43
32759;BME280;19125;52.360;9.974;2023-05-24T02:08:35;87723.47;;;-145.17;62.08
32759;BME280;19125;52.360;9.974;2023-05-24T02:11:01;87663.91;;;-145.17;62.17
32759;BME280;19125;52.360;9.974;2023-05-24T02:13:26;87709.56;;;-145.17;62.25
32759;BME280;19125;52.360;9.974;2023-05-24T02:15:52;87634.13;;;-145.17;62.04
32759;BME280;19125;52.360;9.974;2023-05-24T02:18:17;87723.47;;;-145.17;62.63
32759;BME280;19125;52.360;9.974;2023-05-24T02:20:43;87824.72;;;-145.17;62.80
32759;BME280;19125;52.360;9.974;2023-05-24T02:23:08;87834.63;;;-145.17;62.39
32759;BME280;19125;52.360;9.974;2023-05-24T02:25:34;87709.56;;;-145.17;63.25
32759;BME280;19125;52.360;9.974;2023-05-24T02:27:59;87816.75;;;-145.17;62.57
32759;BME280;19125;52.360;9.974;2023-05-24T02:30:26;87794.94;;;-145.17;62.91
32759;BME280;19125;52.360;9.974;2023-05-24T02:32:51;87775.06;;;-145.17;63.00
32759;BME280;19125;52.360;9.974;2023-05-24T02:35:17;87751.25;;;-145.17;63.18
32759;BME280;19125;52.360;9.974;2023-05-24T02:37:42;87824.72;;;-145.17;63.11
32759;BME280;19125;52.360;9.974;2023-05-24T02:40:08;87854.47;;;-145.17;63.14
32759;BME280;19125;52.360;9.974;2023-05-24T02:42:33;87824.72;;;-145.17;62.99
32759;BME280;19125;52.360;9.974;2023-05-24T02:45:00;87826.69;;;-145.17;63.73
32759;BME280;19125;52.360;9.974;2023-05-24T02:47:26;87822.72;;;-145.17;63.68
32759;BME280;19125;52.360;9.974;2023-05-24T02:49:54;87818.75;;;-145.17;63.72
32759;BME280;19125;52.360;9.974;2023-05-24T02:52:20;87832.66;;;-145.17;63.55
32759;BME280;19125;52.360;9.974;2023-05-24T02:54:50;87842.56;;;-145.17;63.90
32759;BME280;19125;52.360;9.974;2023-05-24T02:57:15;87822.72;;;-145.17;64.06
32759;BME280;19125;52.360;9.974;2023-05-24T02:59:41;87832.66;;;-145.17;63.66
32759;BME280;19125;52.360;9.974;2023-05-24T03:02:07;87818.75;;;-145.17;63.72
32759;BME280;19125;52.360;9.974;2023-05-24T03:04:32;87755.22;;;-145.17;63.82
32759;BME280;19125;52.360;9.974;2023-05-24T03:06:58;87884.25;;;-145.17;63.59
32759;BME280;19125;52.360;9.974;2023-05-24T03:09:23;87854.47;;;-145.17;63.84
32759;BME280;19125;52.360;9.974;2023-05-24T03:11:48;87810.81;;;-145.17;64.23
32759;BME280;19125;52.360;9.974;2023-05-24T03:14:15;87810.81;;;-145.17;63.61
32759;BME280;19125;52.360;9.974;2023-05-24T03:16:41;87872.34;;;-145.17;64.33
32759;BME280;19125;52.360;9.974;2023-05-24T03:19:06;87864.41;;;-145.17;64.08
32759;BME280;19125;52.360;9.974;2023-05-24T03:21:32;87874.34;;;-145.17;63.69
32759;BME280;19125;52.360;9.974;2023-05-24T03:24:00;87854.47;;;-145.17;64.01
32759;BME280;19125;52.360;9.974;2023-05-24T03:26:26;87830.66;;;-145.17;64.08
32759;BME280;19125;52.360;9.974;2023-05-24T03:28:51;87759.19;;;-145.17;64.47
32759;BME280;19125;52.360;9.974;2023-05-24T03:31:18;87826.69;;;-145.17;64.23
32759;BME280;19125;52.360;9.974;2023-05-24T03:33:45;87836.63;;;-145.17;64.44
32759;BME280;19125;52.360;9.974;2023-05-24T03:36:10;87870.38;;;-145.17;64.27
32759;BME280;19125;52.360;9.974;2023-05-24T03:38:35;87810.81;;;-145.17;64.35
32759;BME280;19125;52.360;9.974;2023-05-24T03:41:01;87870.38;;;-145.17;64.05
32759;BME280;19125;52.360;9.974;2023-05-24T03:43:26;87870.38;;;-145.17;64.47
32759;BME280;19125;52.360;9.974;2023-05-24T03:45:51;87830.66;;;-145.17;64.54
32759;BME280;19125;52.360;9.974;2023-05-24T03:48:17;87794.94;;;-145.17;64.21
32759;BME280;19125;52.360;9.974;2023-05-24T03:50:45;87810.81;;;-145.17;64.04
32759;BME280;19125;52.360;9.974;2023-05-24T03:53:11;87735.38;;;-145.17;63.66
32759;BME280;19125;52.360;9.974;2023-05-24T03:55:36;87769.13;;;-145.17;63.78
32759;BME280;19125;52.360;9.974;2023-05-24T03:58:01;87739.34;;;-145.17;63.50
32759;BME280;19125;52.360;9.974;2023-05-24T04:00:27;87661.94;;;-145.17;63.40
32759;BME280;19125;52.360;9.974;2023-05-24T04:02:52;87735.38;;;-145.17;63.29
32759;BME280;19125;52.360;9.974;2023-05-24T04:05:17;87707.59;;;-145.17;63.37
32759;BME280;19125;52.360;9.974;2023-05-24T04:07:43;87685.75;;;-145.17;62.90
32759;BME280;19125;52.360;9.974;2023-05-24T04:10:10;87687.72;;;-145.17;63.04
32759;BME280;19125;52.360;9.974;2023-05-24T04:12:35;87632.16;;;-145.17;62.88
32759;BME280;19125;52.360;9.974;2023-05-24T04:15:01;87705.59;;;-145.17;62.37
32759;BME280;19125;52.360;9.974;2023-05-24T04:17:27;87610.31;;;-145.17;62.65
32759;BME280;19125;52.360;9.974;2023-05-24T04:19:54;87636.13;;;-145.17;62.05
32759;BME280;19125;52.360;9.974;2023-05-24T04:22:22;87564.66;;;-145.17;62.57
32759;BME280;19125;52.360;9.974;2023-05-24T04:24:48;87499.16;;;-145.17;61.88
32759;BME280;19125;52.360;9.974;2023-05-24T04:27:13;87548.78;;;-145.17;62.07
32759;BME280;19125;52.360;9.974;2023-05-24T04:29:43;87465.41;;;-145.17;61.64
32759;BME280;19125;52.360;9.974;2023-05-24T04:32:09;87493.19;;;-145.17;61.43
32759;BME280;19125;52.360;9.974;2023-05-24T04:34:35;87411.81;;;-145.17;61.03
32759;BME280;19125;52.360;9.974;2023-05-24T04:37:01;87370.13;;;-145.17;60.98
32759;BME280;19125;52.360;9.974;2023-05-24T04:39:30;87344.31;;;-145.17;60.60
32759;BME280;19125;52.360;9.974;2023-05-24T04:41:55;87241.09;;;-145.17;59.45
32759;BME280;19125;52.360;9.974;2023-05-24T04:44:22;87179.56;;;-145.17;58.66
32759;BME280;19125;52.360;9.974;2023-05-24T04:46:48;87082.31;;;-145.17;58.41
32759;BME280;19125;52.360;9.974;2023-05-24T04:49:14;87078.34;;;-145.17;58.66
32759;BME280;19125;52.360;9.974;2023-05-24T04:51:39;87092.25;;;-145.17;58.25
32759;BME280;19125;52.360;9.974;2023-05-24T04:54:08;87116.06;;;-145.17;58.16
32759;BME280;19125;52.360;9.974;2023-05-24T04:56:34;87006.88;;;-145.17;57.60
32759;BME280;19125;52.360;9.974;2023-05-24T04:59:03;87024.75;;;-145.17;57.38
32759;BME280;19125;52.360;9.974;2023-05-24T05:01:30;86941.38;;;-145.17;57.12
32759;BME280;19125;52.360;9.974;2023-05-24T05:03:55;86907.66;;;-145.17;56.83
32759;BME280;19125;52.360;9.974;2023-05-24T05:06:20;86871.94;;;-145.17;56.75
32759;BME280;19125;52.360;9.974;2023-05-24T05:08:46;86860.03;;;-145.17;56.40
32759;BME280;19125;52.360;9.974;2023-05-24T05:11:13;86800.47;;;-145.17;55.99
32759;BME280;19125;52.360;9.974;2023-05-24T05:13:38;86762.78;;;-145.17;55.60
32759;BME280;19125;52.360;9.974;2023-05-24T05:16:04;86764.75;;;-145.17;55.13
32759;BME280;19125;52.360;9.974;2023-05-24T05:18:33;86695.28;;;-145.17;54.51
32759;BME280;19125;52.360;9.974;2023-05-24T05:20:59;86746.91;;;-145.17;53.93
32759;BME280;19125;52.360;9.974;2023-05-24T05:23:24;86554.38;;;-145.17;53.13
32759;BME280;19125;52.360;9.974;2023-05-24T05:25:50;86538.50;;;-145.17;52.71
32759;BME280;19125;52.360;9.974;2023-05-24T05:28:16;86556.38;;;-145.17;52.22
32759;BME280;19125;52.360;9.974;2023-05-24T05:30:41;86457.16;;;-145.17;51.90
32759;BME280;19125;52.360;9.974;2023-05-24T05:33:13;86413.47;;;-145.17;51.70
32759;BME280;19125;52.360;9.974;2023-05-24T05:35:48;86516.69;;;-145.17;50.77
32759;BME280;19125;52.360;9.974;2023-05-24T05:38:14;86453.16;;;-145.17;50.92
32759;BME280;19125;52.360;9.974;2023-05-24T05:40:40;86461.09;;;-145.17;50.90
32759;BME280;19125;52.360;9.974;2023-05-24T05:43:13;86488.91;;;-145.17;50.91
32759;BME280;19125;52.360;9.974;2023-05-24T05:46:04;86528.59;;;-145.17;51.09
32759;BME280;19125;52.360;9.974;2023-05-24T05:48:35;86512.72;;;-145.17;50.89
32759;BME280;19125;52.360;9.974;2023-05-24T05:51:05;86492.88;;;-145.17;51.08
32759;BME280;19125;52.360;9.974;2023-05-24T05:53:51;86473.03;;;-145.17;50.45
32759;BME280;19125;52.360;9.974;2023-05-24T05:56:30;86377.75;;;-145.17;50.22
32759;BME280;19125;52.360;9.974;2023-05-24T05:58:55;86405.53;;;-145.17;49.44
32759;BME280;19125;52.360;9.974;2023-05-24T06:01:41;86353.94;;;-145.17;48.86
32759;BME280;19125;52.360;9.974;2023-05-24T06:04:09;86258.69;;;-145.17;48.61
32759;BME280;19125;52.360;9.974;2023-05-24T06:06:35;86318.22;;;-145.17;47.32
32759;BME280;19125;52.360;9.974;2023-05-24T06:09:01;86262.66;;;-145.17;47.05
32759;BME280;19125;52.360;9.974;2023-05-24T06:11:36;86254.72;;;-145.17;47.08
32759;BME280;19125;52.360;9.974;2023-05-24T06:14:06;86199.16;;;-145.17;46.76
32759;BME280;19125;52.360;9.974;2023-05-24T06:19:23;86266.63;;;-145.17;46.30
32759;BME280;19125;52.360;9.974;2023-05-24T06:21:49;86246.78;;;-145.17;46.54
32759;BME280;19125;52.360;9.974;2023-05-24T06:24:18;86449.19;;;-145.17;46.84
32759;BME280;19125;52.360;9.974;2023-05-24T06:26:51;86385.69;;;-145.17;47.65
32759;BME280;19125;52.360;9.974;2023-05-24T06:29:23;86441.25;;;-145.17;48.60
32759;BME280;19125;52.360;9.974;2023-05-24T06:31:51;86377.75;;;-145.17;48.45
32759;BME280;19125;52.360;9.974;2023-05-24T06:34:36;86300.38;;;-145.17;48.08
32759;BME280;19125;52.360;9.974;2023-05-24T06:37:02;86363.88;;;-145.17;48.25
32759;BME280;19125;52.360;9.974;2023-05-24T06:39:30;86441.25;;;-145.17;48.34
32759;BME280;19125;52.360;9.974;2023-05-24T06:41:58;86330.13;;;-145.17;48.46
32759;BME280;19125;52.360;9.974;2023-05-24T06:44:26;86353.94;;;-145.17;48.48
32759;BME280;19125;52.360;9.974;2023-05-24T06:47:10;86349.97;;;-145.17;47.77
32759;BME280;19125;52.360;9.974;2023-05-24T06:49:38;86306.31;;;-145.17;47.17
32759;BME280;19125;52.360;9.974;2023-05-24T06:52:07;86314.25;;;-145.17;47.07
32759;BME280;19125;52.360;9.974;2023-05-24T06:54:38;86324.19;;;-145.17;46.90
32759;BME280;19125;52.360;9.974;2023-05-24T07:03:19;86308.31;;;-145.17;47.66
32759;BME280;19125;52.360;9.974;2023-05-24T07:05:56;86375.78;;;-145.17;47.58
32759;BME280;19125;52.360;9.974;2023-05-24T07:08:24;86423.41;;;-145.17;47.60
32759;BME280;19125;52.360;9.974;2023-05-24T07:10:58;86322.19;;;-145.17;47.81
32759;BME280;19125;52.360;9.974;2023-05-24T07:13:31;86401.56;;;-145.17;48.02
32759;BME280;19125;52.360;9.974;2023-05-24T07:15:59;86256.72;;;-145.17;47.80
32759;BME280;19125;52.360;9.974;2023-05-24T07:18:28;86282.50;;;-145.17;47.32
32759;BME280;19125;52.360;9.974;2023-05-24T07:20:54;86280.53;;;-145.17;46.72
32759;BME280;19125;52.360;9.974;2023-05-24T07:23:32;86326.16;;;-145.17;46.33
32759;BME280;19125;52.360;9.974;2023-05-24T07:26:02;86324.19;;;-145.17;46.48
32759;BME280;19125;52.360;9.974;2023-05-24T07:28:31;86312.28;;;-145.17;46.63
32759;BME280;19125;52.360;9.974;2023-05-24T07:30:57;86290.44;;;-145.17;46.81
32759;BME280;19125;52.360;9.974;2023-05-24T07:33:26;86314.25;;;-145.17;46.64
32759;BME280;19125;52.360;9.974;2023-05-24T07:35:52;86361.88;;;-145.17;47.30
32759;BME280;19125;52.360;9.974;2023-05-24T07:38:27;86361.88;;;-145.17;47.63
32759;BME280;19125;52.360;9.974;2023-05-24T07:40:53;86320.22;;;-145.17;47.83
32759;BME280;19125;52.360;9.974;2023-05-24T07:43:19;86383.72;;;-145.17;48.08
32759;BME280;19125;52.360;9.974;2023-05-24T07:45:45;86361.88;;;-145.17;48.68
32759;BME280;19125;52.360;9.974;2023-05-24T07:48:18;86334.09;;;-145.17;48.17
32759;BME280;19125;52.360;9.974;2023-05-24T07:50:50;86349.97;;;-145.17;48.25
32759;BME280;19125;52.360;9.974;2023-05-24T07:53:20;86389.66;;;-145.17;48.40
32759;BME280;19125;52.360;9.974;2023-05-24T07:55:52;86411.50;;;-145.17;48.74
32759;BME280;19125;52.360;9.974;2023-05-24T07:58:21;86399.59;;;-145.17;48.44
32759;BME280;19125;52.360;9.974;2023-05-24T08:00:46;86401.56;;;-145.17;48.83
32759;BME280;19125;52.360;9.974;2023-05-24T08:03:12;86409.50;;;-145.17;48.91
32759;BME280;19125;52.360;9.974;2023-05-24T08:05:41;86419.44;;;-145.17;49.26
32759;BME280;19125;52.360;9.974;2023-05-24T08:08:06;86377.75;;;-145.17;49.36
32759;BME280;19125;52.360;9.974;2023-05-24T08:10:35;86469.06;;;-145.17;49.37
32759;BME280;19125;52.360;9.974;2023-05-24T08:13:08;86469.06;;;-145.17;49.71
32759;BME280;19125;52.360;9.974;2023-05-24T08:15:36;86431.34;;;-145.17;51.08
32759;BME280;19125;52.360;9.974;2023-05-24T08:18:02;86550.41;;;-145.17;52.62
32759;BME280;19125;52.360;9.974;2023-05-24T08:20:34;86540.50;;;-145.17;52.97
32759;BME280;19125;52.360;9.974;2023-05-24T08:23:03;86637.75;;;-145.17;54.45
32759;BME280;19125;52.360;9.974;2023-05-24T08:25:41;86697.28;;;-145.17;55.54
32759;BME280;19125;52.360;9.974;2023-05-24T08:31:44;86818.34;;;-145.17;56.95
32759;BME280;19125;52.360;9.974;2023-05-24T08:34:41;86818.34;;;-145.17;56.90
32759;BME280;19125;52.360;9.974;2023-05-24T08:37:12;86842.16;;;-145.17;57.12
32759;BME280;19125;52.360;9.974;2023-05-24T08:43:00;86717.13;;;-145.17;56.37
32759;BME280;19125;52.360;9.974;2023-05-24T08:45:47;86705.22;;;-145.17;55.80
32759;BME280;19125;52.360;9.974;2023-05-24T08:48:21;86804.44;;;-145.17;56.43
32759;BME280;19125;52.360;9.974;2023-05-24T08:51:18;86705.22;;;-145.17;56.48
32759;BME280;19125;52.360;9.974;2023-05-24T08:53:52;86762.78;;;-145.17;56.35
32759;BME280;19125;52.360;9.974;2023-05-24T08:56:26;86689.34;;;-145.17;56.16
32759;BME280;19125;52.360;9.974;2023-05-24T08:58:54;86794.53;;;-145.17;55.76
32759;BME280;19125;52.360;9.974;2023-05-24T09:01:43;86731.00;;;-145.17;55.80
32759;BME280;19125;52.360;9.974;2023-05-24T09:04:14;86744.91;;;-145.17;56.45
32759;BME280;19125;52.360;9.974;2023-05-24T09:06:49;86818.34;;;-145.17;57.00
32759;BME280;19125;52.360;9.974;2023-05-24T09:09:26;86840.16;;;-145.17;57.68
32759;BME280;19125;52.360;9.974;2023-05-24T09:12:14;86867.97;;;-145.17;57.93
32759;BME280;19125;52.360;9.974;2023-05-24T09:14:45;86802.47;;;-145.17;57.32
32759;BME280;19125;52.360;9.974;2023-05-24T09:17:37;86844.13;;;-145.17;57.93
32759;BME280;19125;52.360;9.974;2023-05-24T09:20:09;86903.69;;;-145.17;57.79
32759;BME280;19125;52.360;9.974;2023-05-24T09:22:36;86875.91;;;-145.17;57.65
32759;BME280;19125;52.360;9.974;2023-05-24T09:25:12;86760.78;;;-145.17;57.73
32759;BME280;19125;52.360;9.974;2023-05-24T09:27:49;86842.16;;;-145.17;57.18
32759;BME280;19125;52.360;9.974;2023-05-24T09:30:24;86727.03;;;-145.17;57.09
32759;BME280;19125;52.360;9.974;2023-05-24T09:33:00;86770.72;;;-145.17;56.90
32759;BME280;19125;52.360;9.974;2023-05-24T09:35:31;86699.25;;;-145.17;56.61
32759;BME280;19125;52.360;9.974;2023-05-24T09:37:59;86665.53;;;-145.17;56.41
32759;BME280;19125;52.360;9.974;2023-05-24T09:40:37;86746.91;;;-145.17;56.31
32759;BME280;19125;52.360;9.974;2023-05-24T09:43:08;86727.03;;;-145.17;55.93
32759;BME280;19125;52.360;9.974;2023-05-24T09:45:46;86727.03;;;-145.17;55.93
32759;BME280;19125;52.360;9.974;2023-05-24T09:48:18;86669.50;;;-145.17;55.78
32759;BME280;19125;52.360;9.974;2023-05-24T09:53:43;86500.81;;;-145.17;53.83
32759;BME280;19125;52.360;9.974;2023-05-24T09:56:21;86477.00;;;-145.17;53.89
32759;BME280;19125;52.360;9.974;2023-05-24T09:58:54;86433.31;;;-145.17;53.19
32759;BME280;19125;52.360;9.974;2023-05-24T10:01:26;86373.78;;;-145.17;52.71
32759;BME280;19125;52.360;9.974;2023-05-24T10:04:16;86353.94;;;-145.17;52.44
32759;BME280;19125;52.360;9.974;2023-05-24T10:06:54;86441.25;;;-145.17;51.97
32759;BME280;19125;52.360;9.974;2023-05-24T10:09:36;86346.00;;;-145.17;51.86
32759;BME280;19125;52.360;9.974;2023-05-24T10:12:07;86379.75;;;-145.17;51.76
32759;BME280;19125;52.360;9.974;2023-05-24T10:14:38;86371.81;;;-145.17;52.02
32759;BME280;19125;52.360;9.974;2023-05-24T10:17:05;86421.41;;;-145.17;52.40
32759;BME280;19125;52.360;9.974;2023-05-24T10:19:36;86389.66;;;-145.17;52.36
32759;BME280;19125;52.360;9.974;2023-05-24T10:22:08;86401.56;;;-145.17;52.19
32759;BME280;19125;52.360;9.974;2023-05-24T10:24:58;86413.47;;;-145.17;52.67
32759;BME280;19125;52.360;9.974;2023-05-24T10:27:27;86451.19;;;-145.17;53.15
32759;BME280;19125;52.360;9.974;2023-05-24T10:30:10;86475.00;;;-145.17;53.04
32759;BME280;19125;52.360;9.974;2023-05-24T10:32:39;86508.75;;;-145.17;53.60
32759;BME280;19125;52.360;9.974;2023-05-24T10:35:07;86516.69;;;-145.17;54.32
32759;BME280;19125;52.360;9.974;2023-05-24T10:37:45;86584.16;;;-145.17;54.98
32759;BME280;19125;52.360;9.974;2023-05-24T10:40:22;86605.97;;;-145.17;56.00
32759;BME280;19125;52.360;9.974;2023-05-24T10:42:51;86584.16;;;-145.17;56.36
32759;BME280;19125;52.360;9.974;2023-05-24T10:50:39;86699.25;;;-145.17;57.38
32759;BME280;19125;52.360;9.974;2023-05-24T10:53:18;86738.94;;;-145.17;57.75
32759;BME280;19125;52.360;9.974;2023-05-24T10:56:26;86796.50;;;-145.17;57.64
32759;BME280;19125;52.360;9.974;2023-05-24T11:01:52;86848.13;;;-145.17;58.30
32759;BME280;19125;52.360;9.974;2023-05-24T11:04:45;86869.94;;;-145.17;58.83
32759;BME280;19125;52.360;9.974;2023-05-24T11:07:26;86816.34;;;-145.17;58.71
32759;BME280;19125;52.360;9.974;2023-05-24T11:10:11;86913.59;;;-145.17;58.44
32759;BME280;19125;52.360;9.974;2023-05-24T11:12:39;86836.19;;;-145.17;58.16
32759;BME280;19125;52.360;9.974;2023-05-24T11:15:22;86822.31;;;-145.17;57.89
32759;BME280;19125;52.360;9.974;2023-05-24T11:18:29;86736.97;;;-145.17;57.77
32759;BME280;19125;52.360;9.974;2023-05-24T11:28:10;86707.19;;;-145.17;56.82
32759;BME280;19125;52.360;9.974;2023-05-24T11:30:49;86683.38;;;-145.17;56.97
32759;BME280;19125;52.360;9.974;2023-05-24T11:33:23;86733.00;;;-145.17;56.84
32759;BME280;19125;52.360;9.974;2023-05-24T11:36:00;86746.91;;;-145.17;56.68
32759;BME280;19125;52.360;9.974;2023-05-24T11:38:27;86639.72;;;-145.17;56.54
32759;BME280;19125;52.360;9.974;2023-05-24T11:40:56;86600.03;;;-145.17;56.47
32759;BME280;19125;52.360;9.974;2023-05-24T11:43:25;86604.00;;;-145.17;56.39
32759;BME280;19125;52.360;9.974;2023-05-24T11:45:56;86627.81;;;-145.17;56.00
32759;BME280;19125;52.360;9.974;2023-05-24T11:48:22;86699.25;;;-145.17;56.49
32759;BME280;19125;52.360;9.974;2023-05-24T11:50:49;86633.78;;;-145.17;56.42
32759;BME280;19125;52.360;9.974;2023-05-24T11:53:18;86665.53;;;-145.17;56.64
32759;BME280;19125;52.360;9.974;2023-05-24T11:55:44;86734.97;;;-145.17;56.84
32759;BME280;19125;52.360;9.974;2023-05-24T11:58:18;86699.25;;;-145.17;57.16
32759;BME280;19125;52.360;9.974;2023-05-24T12:00:47;86604.00;;;-145.17;57.17
32759;BME280;19125;52.360;9.974;2023-05-24T12:03:13;86802.47;;;-145.17;57.51
32759;BME280;19125;52.360;9.974;2023-05-24T12:05:41;86713.16;;;-145.17;57.41
32759;BME280;19125;52.360;9.974;2023-05-24T12:08:08;86685.38;;;-145.17;57.18
32759;BME280;19125;52.360;9.974;2023-05-24T12:10:35;86691.31;;;-145.17;57.12
32759;BME280;19125;52.360;9.974;2023-05-24T12:13:18;86580.19;;;-145.17;56.28
32759;BME280;19125;52.360;9.974;2023-05-24T12:15:50;86530.56;;;-145.17;55.67
32759;BME280;19125;52.360;9.974;2023-05-24T12:18:21;86488.91;;;-145.17;55.28
32759;BME280;19125;52.360;9.974;2023-05-24T12:20:51;86445.25;;;-145.17;54.55
32759;BME280;19125;52.360;9.974;2023-05-24T12:23:23;86433.31;;;-145.17;54.11
32759;BME280;19125;52.360;9.974;2023-05-24T12:25:50;86399.59;;;-145.17;53.82
32759;BME280;19125;52.360;9.974;2023-05-24T12:28:21;86381.72;;;-145.17;53.12
32759;BME280;19125;52.360;9.974;2023-05-24T12:30:49;86316.25;;;-145.17;53.27
32759;BME280;19125;52.360;9.974;2023-05-24T12:33:17;86453.16;;;-145.17;53.90
32759;BME280;19125;52.360;9.974;2023-05-24T12:35:53;86369.81;;;-145.17;53.64
32759;BME280;19125;52.360;9.974;2023-05-24T12:38:19;86320.22;;;-145.17;53.17
32759;BME280;19125;52.360;9.974;2023-05-24T12:40:50;86389.66;;;-145.17;53.20
32759;BME280;19125;52.360;9.974;2023-05-24T12:43:19;86395.63;;;-145.17;53.29
32759;BME280;19125;52.360;9.974;2023-05-24T12:45:48;86351.97;;;-145.17;53.73
32759;BME280;19125;52.360;9.974;2023-05-24T12:48:16;86399.59;;;-145.17;53.70
32759;BME280;19125;52.360;9.974;2023-05-24T12:50:42;86312.28;;;-145.17;53.66
32759;BME280;19125;52.360;9.974;2023-05-24T12:53:30;86282.50;;;-145.17;53.57
32759;BME280;19125;52.360;9.974;2023-05-24T12:55:58;86262.66;;;-145.17;52.63
32759;BME280;19125;52.360;9.974;2023-05-24T12:58:25;86082.09;;;-145.17;51.32
32759;BME280;19125;52.360;9.974;2023-05-24T13:03:32;85865.81;;;-145.17;47.42
32759;BME280;19125;52.360;9.974;2023-05-24T13:06:06;85929.28;;;-145.17;46.32
32759;BME280;19125;52.360;9.974;2023-05-24T13:08:35;85734.84;;;-145.17;45.99
32759;BME280;19125;52.360;9.974;2023-05-24T13:11:01;85772.53;;;-145.17;45.15
32759;BME280;19125;52.360;9.974;2023-05-24T13:13:27;85814.22;;;-145.17;44.67
32759;BME280;19125;52.360;9.974;2023-05-24T13:16:02;85830.09;;;-145.17;44.52
32759;BME280;19125;52.360;9.974;2023-05-24T13:18:30;85826.13;;;-145.17;44.34
32759;BME280;19125;52.360;9.974;2023-05-24T13:20:56;85814.22;;;-145.17;44.52
32759;BME280;19125;52.360;9.974;2023-05-24T13:23:27;85756.66;;;-145.17;44.17
32759;BME280;19125;52.360;9.974;2023-05-24T13:25:53;85772.53;;;-145.17;43.39
32759;BME280;19125;52.360;9.974;2023-05-24T13:28:25;85770.56;;;-145.17;43.73
32759;BME280;19125;52.360;9.974;2023-05-24T13:30:51;85736.81;;;-145.17;43.56
32759;BME280;19125;52.360;9.974;2023-05-24T13:33:17;85703.09;;;-145.17;43.30
32759;BME280;19125;52.360;9.974;2023-05-24T13:35:51;85790.41;;;-145.17;42.86
32759;BME280;19125;52.360;9.974;2023-05-24T13:38:19;85826.13;;;-145.17;43.15
32759;BME280;19125;52.360;9.974;2023-05-24T13:40:45;85812.22;;;-145.17;43.07
32759;BME280;19125;52.360;9.974;2023-05-24T13:43:11;85913.41;;;-145.17;43.28